createdAt,value
2024-03-02T00:01:46.992Z,6.24
2024-03-02T00:04:14.820Z,6.23
2024-03-02T00:06:42.686Z,6.22
2024-03-02T00:09:13.482Z,6.23
2024-03-02T00:11:41.589Z,6.24
2024-03-02T00:14:10.837Z,6.24
2024-03-02T00:16:39.157Z,6.25
2024-03-02T00:19:09.201Z,6.26
2024-03-02T00:21:37.328Z,6.26
2024-03-02T00:24:19.782Z,6.28
2024-03-02T00:26:47.718Z,6.28
2024-03-02T00:29:19.309Z,6.28
2024-03-02T00:31:47.348Z,6.30
2024-03-02T00:34:17.396Z,6.30
2024-03-02T00:36:46.603Z,6.30
2024-03-02T00:39:17.220Z,6.31
2024-03-02T00:41:45.393Z,6.30
2024-03-02T00:44:14.998Z,6.31
2024-03-02T00:46:45.711Z,6.34
2024-03-02T00:49:25.559Z,6.32
2024-03-02T00:51:55.020Z,6.30
2024-03-02T00:54:25.549Z,6.28
2024-03-02T00:56:56.184Z,6.26
2024-03-02T00:59:25.284Z,6.23
2024-03-02T01:01:55.138Z,6.19
2024-03-02T01:04:23.066Z,6.16
2024-03-02T01:06:50.965Z,6.13
2024-03-02T01:09:19.085Z,6.07
2024-03-02T01:11:47.521Z,6.02
2024-03-02T01:14:15.442Z,5.98
2024-03-02T01:16:43.401Z,5.92
2024-03-02T01:19:12.815Z,5.86
2024-03-02T01:21:40.770Z,5.83
2024-03-02T01:24:08.628Z,5.79
2024-03-02T01:26:36.416Z,5.75
2024-03-02T01:29:04.264Z,5.71
2024-03-02T01:31:32.065Z,5.68
2024-03-02T01:33:59.928Z,5.62
2024-03-02T01:36:29.221Z,5.59
2024-03-02T01:38:57.043Z,5.55
2024-03-02T01:41:24.918Z,5.51
2024-03-02T01:43:52.726Z,5.48
2024-03-02T01:46:20.596Z,5.46
2024-03-02T01:48:49.035Z,5.42
2024-03-02T01:51:16.975Z,5.39
2024-03-02T01:53:46.168Z,5.37
2024-03-02T01:56:13.999Z,5.36
2024-03-02T01:58:41.804Z,5.35
2024-03-02T02:01:11.257Z,5.35
2024-03-02T02:03:39.496Z,5.34
2024-03-02T02:06:08.212Z,5.32
2024-03-02T02:08:36.038Z,5.31
2024-03-02T02:11:05.604Z,5.30
2024-03-02T02:13:33.535Z,5.28
2024-03-02T02:16:07.050Z,5.27
2024-03-02T02:18:35.084Z,5.26
2024-03-02T02:21:02.920Z,5.26
2024-03-02T02:23:32.084Z,5.28
2024-03-02T02:25:59.936Z,5.30
2024-03-02T02:28:27.817Z,5.31
2024-03-02T02:30:58.061Z,5.35
2024-03-02T02:33:26.065Z,5.37
2024-03-02T02:35:54.130Z,5.40
2024-03-02T02:38:22.061Z,5.45
2024-03-02T02:40:51.232Z,5.50
2024-03-02T02:43:19.111Z,5.54
2024-03-02T02:45:47.093Z,5.60
2024-03-02T02:48:15.022Z,5.65
2024-03-02T02:50:43.867Z,5.72
2024-03-02T02:53:11.677Z,5.80
2024-03-02T02:55:41.867Z,5.84
2024-03-02T02:58:11.104Z,5.88
2024-03-02T03:00:38.994Z,5.93
2024-03-02T03:03:06.881Z,5.95
2024-03-02T03:05:33.744Z,6.01
2024-03-02T03:08:01.536Z,6.05
2024-03-02T03:10:29.442Z,6.08
2024-03-02T03:12:57.901Z,6.10
2024-03-02T03:15:27.545Z,6.13
2024-03-02T03:17:55.612Z,6.14
2024-03-02T03:20:24.640Z,6.15
2024-03-02T03:22:52.508Z,6.14
2024-03-02T03:25:20.330Z,6.13
2024-03-02T03:27:48.161Z,6.13
2024-03-02T03:30:16.772Z,6.10
2024-03-02T03:32:46.211Z,6.06
2024-03-02T03:35:15.769Z,6.03
2024-03-02T03:37:43.617Z,6.00
2024-03-02T03:40:12.456Z,5.99
2024-03-02T03:42:41.068Z,5.97
2024-03-02T03:45:09.815Z,5.97
2024-03-02T03:47:37.726Z,5.94
2024-03-02T03:50:08.500Z,5.92
2024-03-02T03:52:36.744Z,5.90
2024-03-02T03:55:06.611Z,5.87
2024-03-02T03:57:34.743Z,5.85
2024-03-02T04:00:02.586Z,5.84
2024-03-02T04:02:39.980Z,5.83
2024-03-02T04:05:12.157Z,5.83
2024-03-02T04:07:41.428Z,5.83
2024-03-02T04:10:10.658Z,5.84
2024-03-02T04:12:39.070Z,5.85
2024-03-02T04:15:07.985Z,5.86
2024-03-02T04:17:37.137Z,5.87
2024-03-02T04:20:06.709Z,5.86
2024-03-02T04:22:36.923Z,5.84
2024-03-02T04:25:06.453Z,5.82
2024-03-02T04:27:34.730Z,5.79
2024-03-02T04:30:02.834Z,5.75
2024-03-02T04:32:30.964Z,5.71
2024-03-02T04:34:58.873Z,5.67
2024-03-02T04:37:26.695Z,5.62
2024-03-02T04:39:56.052Z,5.55
2024-03-02T04:42:24.025Z,5.48
2024-03-02T04:44:51.893Z,5.42
2024-03-02T04:47:19.707Z,5.34
2024-03-02T04:49:47.645Z,5.27
2024-03-02T04:52:15.527Z,5.22
2024-03-02T04:54:57.368Z,5.18
2024-03-02T04:57:26.595Z,5.13
2024-03-02T04:59:54.470Z,5.06
2024-03-02T05:02:22.300Z,4.98
2024-03-02T05:04:50.139Z,4.89
2024-03-02T05:07:18.098Z,4.85
2024-03-02T05:09:45.938Z,4.81
2024-03-02T05:12:41.639Z,4.80
2024-03-02T05:15:11.854Z,4.74
2024-03-02T05:17:39.924Z,4.67
2024-03-02T05:20:09.686Z,4.61
2024-03-02T05:22:37.735Z,4.55
2024-03-02T05:25:06.788Z,4.51
2024-03-02T05:27:34.931Z,4.44
2024-03-02T05:30:03.165Z,4.39
2024-03-02T05:32:32.286Z,4.32
2024-03-02T05:35:00.114Z,4.27
2024-03-02T05:37:27.942Z,4.22
2024-03-02T05:39:55.871Z,4.18
2024-03-02T05:42:23.724Z,4.16
2024-03-02T05:44:51.537Z,4.10
2024-03-02T05:47:19.806Z,4.08
2024-03-02T05:49:48.972Z,4.08
2024-03-02T05:52:16.786Z,4.08
2024-03-02T05:54:44.623Z,4.09
2024-03-02T05:57:33.019Z,4.11
2024-03-02T06:00:01.051Z,4.08
2024-03-02T06:02:27.900Z,4.03
2024-03-02T06:04:58.358Z,3.99
2024-03-02T06:07:26.162Z,3.98
2024-03-02T06:09:54.453Z,3.97
2024-03-02T06:12:22.333Z,3.96
2024-03-02T06:14:50.138Z,3.94
2024-03-02T06:17:17.964Z,3.93
2024-03-02T06:19:45.752Z,3.94
2024-03-02T06:22:14.898Z,3.96
2024-03-02T06:24:43.288Z,3.96
2024-03-02T06:27:11.145Z,3.95
2024-03-02T06:29:38.960Z,3.94
2024-03-02T06:32:07.225Z,3.95
2024-03-02T06:34:35.043Z,3.96
2024-03-02T06:37:03.521Z,3.96
2024-03-02T06:39:35.137Z,3.94
2024-03-02T06:42:03.032Z,3.96
2024-03-02T06:44:30.848Z,3.97
2024-03-02T06:46:58.646Z,3.99
2024-03-02T06:49:26.478Z,4.04
2024-03-02T06:51:54.470Z,4.12
2024-03-02T06:54:22.357Z,4.21
2024-03-02T06:56:51.568Z,4.27
2024-03-02T06:59:19.394Z,4.35
2024-03-02T07:01:47.250Z,4.40
2024-03-02T07:04:15.075Z,4.45
2024-03-02T07:06:42.900Z,4.49
2024-03-02T07:09:12.066Z,4.53
2024-03-02T07:11:39.954Z,4.54
2024-03-02T07:14:09.153Z,4.56
2024-03-02T07:16:39.527Z,4.58
2024-03-02T07:19:07.843Z,4.58
2024-03-02T07:21:35.837Z,4.59
2024-03-02T07:24:04.045Z,4.61
2024-03-02T07:29:03.707Z,4.66
2024-03-02T07:31:32.883Z,4.70
2024-03-02T07:34:00.700Z,4.72
2024-03-02T07:36:28.598Z,4.75
2024-03-02T07:38:56.465Z,4.79
2024-03-02T07:41:24.305Z,4.83
2024-03-02T07:43:52.137Z,4.88
2024-03-02T07:46:19.956Z,4.93
2024-03-02T07:48:49.165Z,4.97
2024-03-02T07:51:17.985Z,5.03
2024-03-02T07:53:47.272Z,5.08
2024-03-02T07:56:22.578Z,5.14
2024-03-02T07:58:50.900Z,5.23
2024-03-02T08:01:19.374Z,5.31
2024-03-02T08:03:51.167Z,5.41
2024-03-02T08:06:21.748Z,5.48
2024-03-02T08:08:49.768Z,5.56
2024-03-02T08:11:17.661Z,5.66
2024-03-02T08:13:45.497Z,5.74
2024-03-02T08:16:13.312Z,5.83
2024-03-02T08:18:41.525Z,5.94
2024-03-02T08:21:10.819Z,6.05
2024-03-02T08:23:41.353Z,6.15
2024-03-02T08:26:10.010Z,6.25
2024-03-02T08:28:38.713Z,6.37
2024-03-02T08:31:06.536Z,6.47
2024-03-02T08:33:34.820Z,6.58
2024-03-02T08:36:05.682Z,6.71
2024-03-02T08:38:35.521Z,6.81
2024-03-02T08:41:04.681Z,6.90
2024-03-02T08:43:32.821Z,7.00
2024-03-02T08:46:00.953Z,7.08
2024-03-02T08:48:28.828Z,7.18
2024-03-02T08:50:56.710Z,7.27
2024-03-02T08:53:24.558Z,7.35
2024-03-02T08:55:53.907Z,7.44
2024-03-02T08:58:22.183Z,7.52
2024-03-02T09:00:50.376Z,7.58
2024-03-02T09:03:18.848Z,7.66
2024-03-02T09:05:47.287Z,7.73
2024-03-02T09:08:15.113Z,7.76
2024-03-02T09:10:42.922Z,7.81
2024-03-02T09:13:12.628Z,7.87
2024-03-02T09:15:41.019Z,7.90
2024-03-02T09:18:09.117Z,7.97
2024-03-02T09:20:37.198Z,8.03
2024-03-02T09:23:05.379Z,8.05
2024-03-02T09:25:33.169Z,8.06
2024-03-02T09:28:01.091Z,8.08
2024-03-02T09:30:30.585Z,8.12
2024-03-02T09:35:29.172Z,8.18
2024-03-02T09:37:58.030Z,8.23
2024-03-02T09:40:26.328Z,8.26
2024-03-02T09:42:54.763Z,8.29
2024-03-02T09:45:25.674Z,8.33
2024-03-02T09:47:54.934Z,8.36
2024-03-02T09:50:23.435Z,8.40
2024-03-02T09:52:51.799Z,8.45
2024-03-02T09:55:20.648Z,8.50
2024-03-02T09:57:49.673Z,8.56
2024-03-02T10:00:18.844Z,8.62
2024-03-02T10:02:50.104Z,8.71
2024-03-02T10:05:28.428Z,8.79
2024-03-02T10:08:03.937Z,8.88
2024-03-02T10:10:41.211Z,8.96
2024-03-02T10:13:10.878Z,9.05
2024-03-02T10:15:41.720Z,9.15
2024-03-02T10:18:12.640Z,9.26
2024-03-02T10:20:42.760Z,9.35
2024-03-02T10:23:14.307Z,9.43
2024-03-02T10:25:51.224Z,9.52
2024-03-02T10:28:23.188Z,9.65
2024-03-02T10:30:52.918Z,9.75
2024-03-02T10:33:21.109Z,9.84
2024-03-02T10:35:52.134Z,9.90
2024-03-02T10:38:20.151Z,9.92
2024-03-02T10:40:49.646Z,9.96
2024-03-02T10:43:18.033Z,10.02
2024-03-02T10:45:49.497Z,10.06
2024-03-02T10:48:17.853Z,10.12
2024-03-02T10:50:45.818Z,10.15
2024-03-02T10:53:15.216Z,10.22
2024-03-02T10:55:43.190Z,10.29
2024-03-02T10:58:14.738Z,10.35
2024-03-02T11:00:44.835Z,10.38
2024-03-02T11:03:14.328Z,10.46
2024-03-02T11:05:46.152Z,10.55
2024-03-02T11:08:18.794Z,10.62
2024-03-02T11:10:53.318Z,10.66
2024-03-02T11:13:25.369Z,10.65
2024-03-02T11:15:57.749Z,10.67
2024-03-02T11:18:26.270Z,10.68
2024-03-02T11:20:55.800Z,10.74
2024-03-02T11:23:34.777Z,10.78
2024-03-02T11:26:20.366Z,10.84
2024-03-02T11:28:49.857Z,10.90
2024-03-02T11:31:17.688Z,10.99
2024-03-02T11:33:45.653Z,11.10
2024-03-02T11:36:13.576Z,11.20
2024-03-02T11:38:46.581Z,11.28
2024-03-02T11:41:15.565Z,11.31
2024-03-02T11:43:45.381Z,11.37
2024-03-02T11:46:14.357Z,11.40
2024-03-02T11:48:42.560Z,11.42
2024-03-02T11:51:10.543Z,11.44
2024-03-02T11:53:44.004Z,11.44
2024-03-02T11:56:12.969Z,11.46
2024-03-02T11:58:42.517Z,11.45
2024-03-02T12:01:10.763Z,11.47
2024-03-02T12:03:38.759Z,11.47
2024-03-02T12:06:08.152Z,11.47
2024-03-02T12:08:36.765Z,11.55
2024-03-02T12:11:07.659Z,11.60
2024-03-02T12:13:35.683Z,11.65
2024-03-02T12:16:03.737Z,11.72
2024-03-02T12:18:31.622Z,11.80
2024-03-02T12:20:59.697Z,11.94
2024-03-02T12:23:28.009Z,12.12
2024-03-02T12:25:56.122Z,12.25
2024-03-02T12:28:25.748Z,12.23
2024-03-02T12:30:53.861Z,12.14
2024-03-02T12:33:22.319Z,12.07
2024-03-02T12:35:51.411Z,12.00
2024-03-02T12:38:20.623Z,11.96
2024-03-02T12:40:50.196Z,11.95
2024-03-02T12:43:18.000Z,11.95
2024-03-02T12:45:47.503Z,11.99
2024-03-02T12:48:15.833Z,12.06
2024-03-02T12:50:45.286Z,12.17
2024-03-02T12:53:17.424Z,12.26
2024-03-02T12:55:46.048Z,12.33
2024-03-02T12:58:19.216Z,12.39
2024-03-02T13:00:48.595Z,12.48
2024-03-02T13:03:19.241Z,12.58
2024-03-02T13:05:50.822Z,12.68
2024-03-02T13:08:18.829Z,12.77
2024-03-02T13:10:46.876Z,12.86
2024-03-02T13:13:15.954Z,13.01
2024-03-02T13:15:44.308Z,13.09
2024-03-02T13:18:13.715Z,13.02
2024-03-02T13:20:42.395Z,13.06
2024-03-02T13:23:11.323Z,13.11
2024-03-02T13:25:39.161Z,13.21
2024-03-02T13:28:08.301Z,13.30
2024-03-02T13:30:36.305Z,13.40
2024-03-02T13:33:04.236Z,13.45
2024-03-02T13:35:33.441Z,13.45
2024-03-02T13:38:01.252Z,13.46
2024-03-02T13:40:30.210Z,13.52
2024-03-02T13:42:58.122Z,13.58
2024-03-02T13:45:26.193Z,13.65
2024-03-02T13:47:56.660Z,13.70
2024-03-02T13:50:24.459Z,13.70
2024-03-02T13:52:53.605Z,13.66
2024-03-02T13:55:21.242Z,13.64
2024-03-02T13:57:49.941Z,13.62
2024-03-02T14:00:20.021Z,13.60
2024-03-02T14:02:50.626Z,13.60
2024-03-02T14:05:18.853Z,13.59
2024-03-02T14:07:46.692Z,13.54
2024-03-02T14:10:17.005Z,13.50
2024-03-02T14:12:44.964Z,13.45
2024-03-02T14:15:13.135Z,13.42
2024-03-02T14:17:41.041Z,13.39
2024-03-02T14:20:11.497Z,13.40
2024-03-02T14:22:39.406Z,13.40
2024-03-02T14:25:07.968Z,13.38
2024-03-02T14:27:51.069Z,13.33
2024-03-02T14:30:25.600Z,13.27
2024-03-02T14:32:53.508Z,13.27
2024-03-02T14:35:23.688Z,13.28
2024-03-02T14:37:51.671Z,13.32
2024-03-02T14:40:19.573Z,13.33
2024-03-02T14:42:49.525Z,13.29
2024-03-02T14:45:17.507Z,13.31
2024-03-02T14:47:45.672Z,13.28
2024-03-02T14:50:13.956Z,13.30
2024-03-02T14:52:43.696Z,13.26
2024-03-02T14:55:13.046Z,13.24
2024-03-02T14:57:40.950Z,13.21
2024-03-02T15:00:12.807Z,13.13
2024-03-02T15:02:40.810Z,13.09
2024-03-02T15:05:09.734Z,13.05
2024-03-02T15:07:37.553Z,13.03
2024-03-02T15:10:06.472Z,13.04
2024-03-02T15:12:34.415Z,13.02
2024-03-02T15:15:02.356Z,13.02
2024-03-02T15:17:32.089Z,12.97
2024-03-02T15:19:59.954Z,12.93
2024-03-02T15:22:27.757Z,12.91
2024-03-02T15:24:55.691Z,12.87
2024-03-02T15:27:23.622Z,12.83
2024-03-02T15:29:53.243Z,12.82
2024-03-02T15:32:21.103Z,12.80
2024-03-02T15:34:50.439Z,12.77
2024-03-02T15:37:18.507Z,12.70
2024-03-02T15:39:46.356Z,12.68
2024-03-02T15:42:14.241Z,12.66
2024-03-02T15:44:44.101Z,12.60
2024-03-02T15:47:13.074Z,12.57
2024-03-02T15:49:40.923Z,12.50
2024-03-02T15:52:10.577Z,12.43
2024-03-02T15:54:38.493Z,12.38
2024-03-02T15:57:06.686Z,12.35
2024-03-02T15:59:34.733Z,12.31
2024-03-02T16:02:02.582Z,12.29
2024-03-02T16:04:30.416Z,12.25
2024-03-02T16:06:58.233Z,12.16
2024-03-02T16:09:27.586Z,12.08
2024-03-02T16:11:55.455Z,12.04
2024-03-02T16:14:23.325Z,12.00
2024-03-02T16:16:51.160Z,11.97
2024-03-02T16:19:29.033Z,11.93
2024-03-02T16:22:00.719Z,11.91
2024-03-02T16:24:30.155Z,11.84
2024-03-02T16:26:58.000Z,11.78
2024-03-02T16:29:25.841Z,11.71
2024-03-02T16:31:53.705Z,11.61
2024-03-02T16:34:21.701Z,11.56
2024-03-02T16:36:49.554Z,11.50
2024-03-02T16:39:17.399Z,11.44
2024-03-02T16:41:48.022Z,11.40
2024-03-02T16:44:16.129Z,11.31
2024-03-02T16:46:45.959Z,11.22
2024-03-02T16:49:13.916Z,11.13
2024-03-02T16:51:41.918Z,11.04
2024-03-02T16:54:09.851Z,10.94
2024-03-02T16:56:41.615Z,10.85
2024-03-02T16:59:11.069Z,10.76
2024-03-02T17:01:39.439Z,10.67
2024-03-02T17:04:08.263Z,10.58
2024-03-02T17:06:36.523Z,10.48
2024-03-02T17:09:04.673Z,10.42
2024-03-02T17:11:32.987Z,10.32
2024-03-02T17:14:01.015Z,10.24
2024-03-02T17:16:30.331Z,10.16
2024-03-02T17:18:58.175Z,10.08
2024-03-02T17:21:26.292Z,9.98
2024-03-02T17:23:54.346Z,9.90
2024-03-02T17:26:22.138Z,9.80
2024-03-02T17:28:49.973Z,9.72
2024-03-02T17:31:17.874Z,9.64
2024-03-02T17:33:47.130Z,9.56
2024-03-02T17:36:15.482Z,9.50
2024-03-02T17:38:43.631Z,9.43
2024-03-02T17:41:11.702Z,9.37
2024-03-02T17:43:40.379Z,9.31
2024-03-02T17:46:08.482Z,9.22
2024-03-02T17:48:36.445Z,9.16
2024-03-02T17:51:08.445Z,9.09
2024-03-02T17:53:36.257Z,9.04
2024-03-02T17:56:04.479Z,8.98
2024-03-02T17:58:33.546Z,8.92
2024-03-02T18:01:01.623Z,8.86
2024-03-02T18:03:29.758Z,8.80
2024-03-02T18:05:57.741Z,8.75
2024-03-02T18:08:27.002Z,8.69
2024-03-02T18:10:54.875Z,8.63
2024-03-02T18:13:22.688Z,8.56
2024-03-02T18:15:51.787Z,8.50
2024-03-02T18:18:19.902Z,8.45
2024-03-02T18:20:47.734Z,8.39
2024-03-02T18:23:15.586Z,8.31
2024-03-02T18:25:48.188Z,8.26
2024-03-02T18:28:16.060Z,8.19
2024-03-02T18:30:44.179Z,8.15
2024-03-02T18:33:12.146Z,8.11
2024-03-02T18:35:40.000Z,8.08
2024-03-02T18:38:07.863Z,8.06
2024-03-02T18:40:35.711Z,8.08
2024-03-02T18:43:05.568Z,8.07
2024-03-02T18:45:33.662Z,8.09
2024-03-02T18:48:04.002Z,8.08
2024-03-02T18:50:33.952Z,8.07
2024-03-02T18:53:01.814Z,8.07
2024-03-02T18:55:29.640Z,8.08
2024-03-02T18:57:58.288Z,8.08
2024-03-02T19:00:27.845Z,8.06
2024-03-02T19:02:55.752Z,8.04
2024-03-02T19:05:23.590Z,7.99
2024-03-02T19:07:51.416Z,7.96
2024-03-02T19:10:19.298Z,7.90
2024-03-02T19:12:48.673Z,7.84
2024-03-02T19:15:17.071Z,7.81
2024-03-02T19:17:46.492Z,7.75
2024-03-02T19:20:15.337Z,7.69
2024-03-02T19:22:43.202Z,7.67
2024-03-02T19:25:12.485Z,7.66
2024-03-02T19:27:40.700Z,7.66
2024-03-02T19:30:10.015Z,7.71
2024-03-02T19:32:37.991Z,7.73
2024-03-02T19:35:08.570Z,7.74
2024-03-02T19:37:37.140Z,7.71
2024-03-02T19:40:07.024Z,7.70
2024-03-02T19:42:35.889Z,7.71
2024-03-02T19:45:06.159Z,7.72
2024-03-02T19:47:34.469Z,7.68
2024-03-02T19:50:02.371Z,7.66
2024-03-02T19:52:31.651Z,7.61
2024-03-02T19:54:59.488Z,7.56
2024-03-02T19:57:29.574Z,7.50
2024-03-02T19:59:57.491Z,7.45
2024-03-02T20:02:28.016Z,7.40
2024-03-02T20:04:56.009Z,7.32
2024-03-02T20:07:23.814Z,7.28
2024-03-02T20:09:54.314Z,7.25
2024-03-02T20:12:22.315Z,7.20
2024-03-02T20:14:50.303Z,7.17
2024-03-02T20:17:18.191Z,7.14
2024-03-02T20:19:46.269Z,7.11
2024-03-02T20:22:14.755Z,7.09
2024-03-02T20:24:43.775Z,7.06
2024-03-02T20:27:13.631Z,7.02
2024-03-02T20:29:41.500Z,7.00
2024-03-02T20:32:09.404Z,6.98
2024-03-02T20:34:37.245Z,6.97
2024-03-02T20:37:05.451Z,6.96
2024-03-02T20:39:33.388Z,6.94
2024-03-02T20:42:01.683Z,6.92
2024-03-02T20:44:30.907Z,6.90
2024-03-02T20:46:58.786Z,6.93
2024-03-02T20:49:27.193Z,6.97
2024-03-02T20:51:55.094Z,7.02
2024-03-02T20:54:22.927Z,7.04
2024-03-02T20:56:52.844Z,7.03
2024-03-02T20:59:20.707Z,6.99
2024-03-02T21:01:50.626Z,6.91
2024-03-02T21:04:18.627Z,6.88
2024-03-02T21:06:46.762Z,6.82
2024-03-02T21:09:14.699Z,6.78
2024-03-02T21:11:45.282Z,6.71
2024-03-02T21:14:13.279Z,6.61
2024-03-02T21:16:41.620Z,6.50
2024-03-02T21:19:12.823Z,6.41
2024-03-02T21:21:43.502Z,6.32
2024-03-02T21:24:11.456Z,6.28
2024-03-02T21:26:40.294Z,6.25
2024-03-02T21:29:08.119Z,6.20
2024-03-02T21:31:36.174Z,6.15
2024-03-02T21:34:05.069Z,6.15
2024-03-02T21:36:34.880Z,6.10
2024-03-02T21:39:05.414Z,6.08
2024-03-02T21:41:33.769Z,6.04
2024-03-02T21:44:01.689Z,6.02
2024-03-02T21:46:29.504Z,6.00
2024-03-02T21:48:57.350Z,5.98
2024-03-02T21:51:25.423Z,5.94
2024-03-02T21:53:55.582Z,5.92
2024-03-02T21:56:23.397Z,5.89
2024-03-02T21:58:52.011Z,5.82
2024-03-02T22:01:20.142Z,5.79
2024-03-02T22:03:48.134Z,5.79
2024-03-02T22:06:16.608Z,5.76
2024-03-02T22:08:44.419Z,5.71
2024-03-02T22:11:13.894Z,5.64
2024-03-02T22:13:41.848Z,5.62
2024-03-02T22:16:09.962Z,5.60
2024-03-02T22:18:38.080Z,5.58
2024-03-02T22:21:06.238Z,5.52
2024-03-02T22:23:34.086Z,5.51
2024-03-02T22:26:02.092Z,5.47
2024-03-02T22:28:31.302Z,5.44
2024-03-02T22:30:59.188Z,5.41
2024-03-02T22:33:27.087Z,5.36
2024-03-02T22:35:54.962Z,5.31
2024-03-02T22:38:22.824Z,5.25
2024-03-02T22:40:50.683Z,5.20
2024-03-02T22:43:18.617Z,5.17
2024-03-02T22:45:48.414Z,5.13
2024-03-02T22:48:16.389Z,5.09
2024-03-02T22:50:44.443Z,5.07
2024-03-02T22:53:12.385Z,4.98
2024-03-02T22:55:40.310Z,4.94
2024-03-02T22:58:08.817Z,4.92
2024-03-02T23:00:38.254Z,4.86
2024-03-02T23:06:35.914Z,4.70
2024-03-02T23:09:04.666Z,4.66
2024-03-02T23:11:32.775Z,4.65
2024-03-02T23:14:00.649Z,4.66
2024-03-02T23:16:30.064Z,4.64
2024-03-02T23:18:58.099Z,4.63
2024-03-02T23:21:26.008Z,4.58
2024-03-02T23:23:55.211Z,4.55
2024-03-02T23:26:23.835Z,4.53
2024-03-02T23:28:51.656Z,4.51
2024-03-02T23:31:19.670Z,4.50
2024-03-02T23:33:49.295Z,4.51
2024-03-02T23:36:17.356Z,4.51
2024-03-02T23:38:45.192Z,4.50
2024-03-02T23:41:15.924Z,4.47
2024-03-02T23:43:43.828Z,4.42
2024-03-02T23:46:12.347Z,4.38
2024-03-02T23:48:40.630Z,4.32
2024-03-02T23:51:08.758Z,4.29
2024-03-02T23:53:36.637Z,4.24
2024-03-02T23:56:12.383Z,4.20
2024-03-02T23:58:40.896Z,4.15
